createdAt,value
2023-12-03T00:02:23.369Z,0.81
2023-12-03T00:04:50.091Z,0.81
2023-12-03T00:07:17.861Z,0.81
2023-12-03T00:09:46.859Z,0.81
2023-12-03T00:12:14.614Z,0.80
2023-12-03T00:14:42.898Z,0.81
2023-12-03T00:17:10.632Z,0.80
2023-12-03T00:19:38.328Z,0.81
2023-12-03T00:22:06.425Z,0.79
2023-12-03T00:24:34.108Z,0.80
2023-12-03T00:27:02.384Z,0.80
2023-12-03T00:29:30.073Z,0.79
2023-12-03T00:31:57.713Z,0.81
2023-12-03T00:34:25.571Z,0.81
2023-12-03T00:36:53.968Z,0.81
2023-12-03T00:39:21.673Z,0.82
2023-12-03T00:41:49.444Z,0.81
2023-12-03T00:44:17.592Z,0.83
2023-12-03T00:46:45.212Z,0.84
2023-12-03T00:49:13.066Z,0.83
2023-12-03T00:51:40.897Z,0.84
2023-12-03T00:54:08.957Z,0.84
2023-12-03T00:56:36.606Z,0.85
2023-12-03T00:59:04.308Z,0.85
2023-12-03T01:01:31.949Z,0.85
2023-12-03T01:04:00.400Z,0.86
2023-12-03T01:06:28.557Z,0.86
2023-12-03T01:08:56.765Z,0.86
2023-12-03T01:11:35.128Z,0.86
2023-12-03T01:14:04.463Z,0.87
2023-12-03T01:16:32.352Z,0.90
2023-12-03T01:19:00.166Z,0.89
2023-12-03T01:21:27.954Z,0.90
2023-12-03T01:23:55.625Z,0.90
2023-12-03T01:26:23.329Z,0.91
2023-12-03T01:28:51.239Z,0.92
2023-12-03T01:31:18.885Z,0.92
2023-12-03T01:33:47.287Z,0.92
2023-12-03T01:36:15.031Z,0.93
2023-12-03T01:38:43.054Z,0.92
2023-12-03T01:41:10.739Z,0.91
2023-12-03T01:43:38.426Z,0.91
2023-12-03T01:46:06.074Z,0.89
2023-12-03T01:48:34.018Z,0.89
2023-12-03T01:51:02.549Z,0.89
2023-12-03T01:53:30.141Z,0.88
2023-12-03T01:55:58.372Z,0.86
2023-12-03T01:58:26.026Z,0.87
2023-12-03T02:00:53.669Z,0.87
2023-12-03T02:03:21.314Z,0.88
2023-12-03T02:05:49.071Z,0.86
2023-12-03T02:08:16.800Z,0.86
2023-12-03T02:10:44.425Z,0.84
2023-12-03T02:13:12.089Z,0.81
2023-12-03T02:15:39.835Z,0.79
2023-12-03T02:18:07.670Z,0.77
2023-12-03T02:20:35.419Z,0.77
2023-12-03T02:23:03.094Z,0.77
2023-12-03T02:25:30.756Z,0.78
2023-12-03T02:27:58.437Z,0.79
2023-12-03T02:30:26.328Z,0.80
2023-12-03T02:32:54.065Z,0.81
2023-12-03T02:35:21.775Z,0.82
2023-12-03T02:37:49.363Z,0.83
2023-12-03T02:40:17.020Z,0.82
2023-12-03T02:42:44.696Z,0.83
2023-12-03T02:45:12.332Z,0.83
2023-12-03T02:47:39.962Z,0.83
2023-12-03T02:50:07.635Z,0.83
2023-12-03T02:52:35.585Z,0.84
2023-12-03T02:55:03.215Z,0.84
2023-12-03T02:57:31.004Z,0.85
2023-12-03T02:59:58.745Z,0.86
2023-12-03T03:02:26.338Z,0.87
2023-12-03T03:04:54.395Z,0.90
2023-12-03T03:07:22.003Z,0.91
2023-12-03T03:09:49.684Z,0.94
2023-12-03T03:12:17.387Z,0.96
2023-12-03T03:14:44.964Z,0.97
2023-12-03T03:17:12.596Z,0.99
2023-12-03T03:19:40.261Z,1.00
2023-12-03T03:22:07.897Z,1.01
2023-12-03T03:24:35.505Z,1.02
2023-12-03T03:27:03.301Z,1.03
2023-12-03T03:29:31.219Z,1.06
2023-12-03T03:31:58.834Z,1.07
2023-12-03T03:34:26.823Z,1.09
2023-12-03T03:36:53.417Z,1.11
2023-12-03T03:39:21.104Z,1.13
2023-12-03T03:41:48.794Z,1.14
2023-12-03T03:44:16.432Z,1.16
2023-12-03T03:46:44.050Z,1.17
2023-12-03T03:49:12.190Z,1.18
2023-12-03T03:51:40.062Z,1.19
2023-12-03T03:54:08.137Z,1.20
2023-12-03T03:56:36.113Z,1.20
2023-12-03T03:59:03.722Z,1.22
2023-12-03T04:03:59.613Z,1.24
2023-12-03T04:06:28.311Z,1.24
2023-12-03T04:08:56.035Z,1.26
2023-12-03T04:11:23.705Z,1.27
2023-12-03T04:13:51.311Z,1.27
2023-12-03T04:16:18.929Z,1.28
2023-12-03T04:18:46.954Z,1.28
2023-12-03T04:21:14.712Z,1.29
2023-12-03T04:23:42.350Z,1.30
2023-12-03T04:26:09.977Z,1.30
2023-12-03T04:28:37.618Z,1.31
2023-12-03T04:31:05.286Z,1.31
2023-12-03T04:33:32.961Z,1.32
2023-12-03T04:36:00.618Z,1.34
2023-12-03T04:38:28.234Z,1.35
2023-12-03T04:40:56.292Z,1.35
2023-12-03T04:43:23.903Z,1.36
2023-12-03T04:45:51.574Z,1.36
2023-12-03T04:48:19.241Z,1.37
2023-12-03T04:50:46.854Z,1.37
2023-12-03T04:53:14.493Z,1.38
2023-12-03T04:55:42.137Z,1.39
2023-12-03T04:58:11.515Z,1.38
2023-12-03T05:00:39.147Z,1.38
2023-12-03T05:03:13.328Z,1.38
2023-12-03T05:05:40.945Z,1.39
2023-12-03T05:08:10.120Z,1.39
2023-12-03T05:10:37.773Z,1.39
2023-12-03T05:13:05.386Z,1.39
2023-12-03T05:15:33.005Z,1.39
2023-12-03T05:18:00.707Z,1.40
2023-12-03T05:20:28.470Z,1.40
2023-12-03T05:22:56.140Z,1.41
2023-12-03T05:25:25.389Z,1.40
2023-12-03T05:27:53.053Z,1.40
2023-12-03T05:30:20.689Z,1.40
2023-12-03T05:32:48.921Z,1.40
2023-12-03T05:35:17.248Z,1.41
2023-12-03T05:37:44.895Z,1.41
2023-12-03T05:40:12.542Z,1.41
2023-12-03T05:42:40.258Z,1.40
2023-12-03T05:45:08.133Z,1.40
2023-12-03T05:47:37.454Z,1.41
2023-12-03T05:50:05.858Z,1.40
2023-12-03T05:52:33.656Z,1.41
2023-12-03T05:55:01.294Z,1.41
2023-12-03T05:57:29.432Z,1.42
2023-12-03T05:59:57.098Z,1.43
2023-12-03T06:02:24.754Z,1.44
2023-12-03T06:04:52.465Z,1.43
2023-12-03T06:07:20.150Z,1.44
2023-12-03T06:09:47.866Z,1.44
2023-12-03T06:12:15.513Z,1.44
2023-12-03T06:14:43.134Z,1.45
2023-12-03T06:17:10.854Z,1.45
2023-12-03T06:19:38.620Z,1.44
2023-12-03T06:22:06.650Z,1.45
2023-12-03T06:24:34.488Z,1.45
2023-12-03T06:27:02.116Z,1.44
2023-12-03T06:29:30.021Z,1.44
2023-12-03T06:31:57.637Z,1.44
2023-12-03T06:34:25.332Z,1.43
2023-12-03T06:36:53.059Z,1.43
2023-12-03T06:39:20.756Z,1.43
2023-12-03T06:41:48.408Z,1.42
2023-12-03T06:44:18.300Z,1.42
2023-12-03T06:46:49.980Z,1.41
2023-12-03T06:49:17.721Z,1.42
2023-12-03T06:51:45.746Z,1.41
2023-12-03T06:54:13.469Z,1.43
2023-12-03T06:56:41.104Z,1.42
2023-12-03T06:59:08.859Z,1.42
2023-12-03T07:01:38.749Z,1.41
2023-12-03T07:04:06.541Z,1.42
2023-12-03T07:06:34.208Z,1.41
2023-12-03T07:09:35.796Z,1.40
2023-12-03T07:11:49.522Z,1.40
2023-12-03T07:14:17.196Z,1.39
2023-12-03T07:16:44.778Z,1.39
2023-12-03T07:19:12.439Z,1.39
2023-12-03T07:21:40.161Z,1.38
2023-12-03T07:24:08.856Z,1.38
2023-12-03T07:26:36.471Z,1.38
2023-12-03T07:29:04.186Z,1.38
2023-12-03T07:31:32.407Z,1.38
2023-12-03T07:34:00.484Z,1.38
2023-12-03T07:36:28.270Z,1.38
2023-12-03T07:38:55.894Z,1.38
2023-12-03T07:41:23.513Z,1.38
2023-12-03T07:43:51.174Z,1.38
2023-12-03T07:46:18.772Z,1.37
2023-12-03T07:48:47.021Z,1.34
2023-12-03T07:51:14.742Z,1.32
2023-12-03T07:53:42.583Z,1.31
2023-12-03T07:56:10.535Z,1.30
2023-12-03T07:58:38.232Z,1.28
2023-12-03T08:01:06.883Z,1.28
2023-12-03T08:03:34.545Z,1.30
2023-12-03T08:06:02.327Z,1.29
2023-12-03T08:08:30.054Z,1.30
2023-12-03T08:10:58.207Z,1.31
2023-12-03T08:13:26.464Z,1.32
2023-12-03T08:15:54.146Z,1.34
2023-12-03T08:18:22.141Z,1.34
2023-12-03T08:20:49.864Z,1.36
2023-12-03T08:23:17.516Z,1.37
2023-12-03T08:25:45.141Z,1.38
2023-12-03T08:28:12.843Z,1.38
2023-12-03T08:30:40.814Z,1.42
2023-12-03T08:33:08.551Z,1.43
2023-12-03T08:35:36.277Z,1.44
2023-12-03T08:38:03.962Z,1.45
2023-12-03T08:40:31.872Z,1.47
2023-12-03T08:42:59.571Z,1.48
2023-12-03T08:45:27.284Z,1.50
2023-12-03T08:47:55.404Z,1.55
2023-12-03T08:50:28.418Z,1.56
2023-12-03T08:52:56.121Z,1.59
2023-12-03T08:55:23.895Z,1.63
2023-12-03T08:57:51.855Z,1.65
2023-12-03T09:00:20.031Z,1.69
2023-12-03T09:02:47.906Z,1.73
2023-12-03T09:05:15.798Z,1.73
2023-12-03T09:07:43.586Z,1.70
2023-12-03T09:10:11.446Z,1.65
2023-12-03T09:12:40.613Z,1.60
2023-12-03T09:15:08.328Z,1.61
2023-12-03T09:17:36.155Z,1.63
2023-12-03T09:20:05.332Z,1.64
2023-12-03T09:22:36.445Z,1.66
2023-12-03T09:25:04.438Z,1.69
2023-12-03T09:27:32.329Z,1.72
2023-12-03T09:30:00.061Z,1.71
2023-12-03T09:32:27.914Z,1.73
2023-12-03T09:34:55.716Z,1.73
2023-12-03T09:37:23.465Z,1.75
2023-12-03T09:39:51.998Z,1.77
2023-12-03T09:42:20.182Z,1.82
2023-12-03T09:44:48.416Z,1.87
2023-12-03T09:47:16.135Z,1.94
2023-12-03T09:49:44.016Z,2.01
2023-12-03T09:52:12.273Z,2.04
2023-12-03T09:54:40.074Z,2.10
2023-12-03T09:57:08.096Z,2.13
2023-12-03T09:59:35.835Z,2.17
2023-12-03T10:02:04.461Z,2.14
2023-12-03T10:04:32.576Z,2.10
2023-12-03T10:07:00.784Z,2.08
2023-12-03T10:09:28.834Z,2.33
2023-12-03T10:11:56.729Z,2.60
2023-12-03T10:14:24.498Z,2.85
2023-12-03T10:16:52.255Z,2.98
2023-12-03T10:19:20.158Z,3.09
2023-12-03T10:21:49.858Z,3.24
2023-12-03T10:24:17.767Z,3.55
2023-12-03T10:26:45.651Z,4.01
2023-12-03T10:29:13.866Z,4.49
2023-12-03T10:31:41.667Z,4.88
2023-12-03T10:34:09.534Z,5.34
2023-12-03T10:36:38.683Z,5.82
2023-12-03T10:39:06.480Z,6.26
2023-12-03T10:41:34.408Z,6.45
2023-12-03T10:44:02.183Z,6.51
2023-12-03T10:46:30.046Z,6.37
2023-12-03T10:48:57.936Z,6.13
2023-12-03T10:51:26.183Z,5.84
2023-12-03T10:53:56.851Z,5.65
2023-12-03T10:56:24.755Z,5.47
2023-12-03T10:58:55.030Z,5.26
2023-12-03T11:01:22.848Z,5.18
2023-12-03T11:03:50.975Z,5.09
2023-12-03T11:06:18.920Z,5.06
2023-12-03T11:08:46.808Z,5.12
2023-12-03T11:11:14.590Z,5.14
2023-12-03T11:13:46.752Z,4.99
2023-12-03T11:16:15.838Z,4.75
2023-12-03T11:18:44.527Z,4.55
2023-12-03T11:21:12.555Z,4.45
2023-12-03T11:23:40.492Z,4.46
2023-12-03T11:26:08.269Z,4.49
2023-12-03T11:28:36.029Z,4.60
2023-12-03T11:31:03.969Z,4.82
2023-12-03T11:33:32.404Z,5.08
2023-12-03T11:36:00.282Z,5.31
2023-12-03T11:38:28.189Z,5.51
2023-12-03T11:40:56.118Z,5.67
2023-12-03T11:43:24.806Z,5.93
2023-12-03T11:45:53.026Z,6.25
2023-12-03T11:48:21.101Z,6.65
2023-12-03T11:50:49.058Z,7.11
2023-12-03T11:53:17.635Z,7.42
2023-12-03T11:55:45.858Z,7.43
2023-12-03T11:58:13.728Z,7.12
2023-12-03T12:00:42.590Z,6.67
2023-12-03T12:03:10.679Z,6.25
2023-12-03T12:05:38.655Z,5.99
2023-12-03T12:08:06.492Z,6.03
2023-12-03T12:10:34.408Z,6.29
2023-12-03T12:13:02.315Z,6.54
2023-12-03T12:15:30.299Z,6.60
2023-12-03T12:17:58.332Z,6.52
2023-12-03T12:20:26.230Z,6.32
2023-12-03T12:22:54.525Z,6.02
2023-12-03T12:25:22.349Z,5.53
2023-12-03T12:27:50.219Z,5.10
2023-12-03T12:30:27.270Z,4.80
2023-12-03T12:33:02.679Z,4.63
2023-12-03T12:35:30.509Z,4.61
2023-12-03T12:37:58.309Z,4.68
2023-12-03T12:40:27.645Z,4.82
2023-12-03T12:42:56.409Z,4.86
2023-12-03T12:45:24.787Z,4.73
2023-12-03T12:47:52.884Z,4.67
2023-12-03T12:50:21.009Z,4.66
2023-12-03T12:52:48.837Z,4.68
2023-12-03T12:55:22.574Z,4.68
2023-12-03T12:57:51.253Z,4.65
2023-12-03T13:00:19.520Z,4.73
2023-12-03T13:02:47.456Z,4.88
2023-12-03T13:05:15.583Z,5.08
2023-12-03T13:07:43.468Z,5.23
2023-12-03T13:10:11.689Z,5.55
2023-12-03T13:12:39.674Z,5.78
2023-12-03T13:15:10.260Z,5.94
2023-12-03T13:17:38.107Z,6.00
2023-12-03T13:20:06.657Z,5.99
2023-12-03T13:22:35.012Z,6.21
2023-12-03T13:25:02.986Z,6.52
2023-12-03T13:27:31.000Z,6.82
2023-12-03T13:29:59.468Z,7.11
2023-12-03T13:32:27.358Z,7.21
2023-12-03T13:34:55.312Z,7.13
2023-12-03T13:37:23.226Z,6.71
2023-12-03T13:39:53.872Z,6.42
2023-12-03T13:42:21.961Z,6.09
2023-12-03T13:44:50.264Z,5.78
2023-12-03T13:47:18.151Z,5.53
2023-12-03T13:49:46.071Z,5.43
2023-12-03T13:52:13.975Z,5.40
2023-12-03T13:54:41.981Z,5.46
2023-12-03T13:57:10.528Z,5.64
2023-12-03T13:59:38.929Z,5.78
2023-12-03T14:02:09.291Z,5.88
2023-12-03T14:04:37.165Z,6.06
2023-12-03T14:07:05.461Z,6.22
2023-12-03T14:09:33.313Z,6.48
2023-12-03T14:12:02.379Z,6.80
2023-12-03T14:14:30.295Z,6.94
2023-12-03T14:16:58.179Z,6.84
2023-12-03T14:19:26.030Z,6.56
2023-12-03T14:21:54.582Z,6.18
2023-12-03T14:24:23.159Z,5.75
2023-12-03T14:26:51.117Z,5.31
2023-12-03T14:29:19.374Z,4.93
2023-12-03T14:31:47.269Z,4.58
2023-12-03T14:34:15.251Z,4.31
2023-12-03T14:36:44.022Z,4.07
2023-12-03T14:39:12.702Z,3.87
2023-12-03T14:41:40.732Z,3.64
2023-12-03T14:44:08.627Z,3.46
2023-12-03T14:46:36.459Z,3.28
2023-12-03T14:49:04.671Z,3.09
2023-12-03T14:51:32.862Z,2.92
2023-12-03T14:54:00.920Z,2.79
2023-12-03T14:56:29.002Z,2.66
2023-12-03T14:58:57.315Z,2.53
2023-12-03T15:01:26.079Z,2.41
2023-12-03T15:03:54.239Z,2.29
2023-12-03T15:06:22.466Z,2.17
2023-12-03T15:08:50.937Z,2.04
2023-12-03T15:11:18.871Z,1.95
2023-12-03T15:13:47.096Z,1.84
2023-12-03T15:16:15.619Z,1.74
2023-12-03T15:18:44.395Z,1.62
2023-12-03T15:21:12.182Z,1.52
2023-12-03T15:23:40.193Z,1.43
2023-12-03T15:26:08.218Z,1.33
2023-12-03T15:28:36.125Z,1.26
2023-12-03T15:31:04.030Z,1.20
2023-12-03T15:33:32.290Z,1.15
2023-12-03T15:36:00.324Z,1.08
2023-12-03T15:38:28.237Z,1.02
2023-12-03T15:40:56.617Z,0.98
2023-12-03T15:43:33.735Z,0.96
2023-12-03T15:46:06.070Z,0.93
2023-12-03T15:48:34.216Z,0.90
2023-12-03T15:51:02.605Z,0.89
2023-12-03T15:53:30.465Z,0.85
2023-12-03T15:55:58.672Z,0.85
2023-12-03T15:58:26.571Z,0.85
2023-12-03T16:00:55.002Z,0.85
2023-12-03T16:03:23.320Z,0.86
2023-12-03T16:05:51.327Z,0.86
2023-12-03T16:08:22.061Z,0.87
2023-12-03T16:10:50.525Z,0.89
2023-12-03T16:13:18.829Z,0.91
2023-12-03T16:15:48.298Z,0.91
2023-12-03T16:18:16.343Z,0.93
2023-12-03T16:20:44.284Z,0.94
2023-12-03T16:23:12.516Z,0.95
2023-12-03T16:25:40.469Z,0.96
2023-12-03T16:28:08.428Z,0.95
2023-12-03T16:30:36.690Z,0.97
2023-12-03T16:33:04.613Z,0.98
2023-12-03T16:35:32.718Z,0.97
2023-12-03T16:38:02.819Z,0.99
2023-12-03T16:40:33.632Z,1.01
2023-12-03T16:43:01.714Z,1.03
2023-12-03T16:45:29.821Z,1.05
2023-12-03T16:47:58.090Z,1.07
2023-12-03T16:50:26.002Z,1.07
2023-12-03T16:52:54.697Z,1.08
2023-12-03T16:55:22.684Z,1.11
2023-12-03T16:57:50.656Z,1.12
2023-12-03T17:00:19.068Z,1.13
2023-12-03T17:02:47.977Z,1.13
2023-12-03T17:05:15.951Z,1.14
2023-12-03T17:07:43.896Z,1.16
2023-12-03T17:10:11.850Z,1.17
2023-12-03T17:12:47.075Z,1.16
2023-12-03T17:15:19.275Z,1.16
2023-12-03T17:17:47.231Z,1.17
2023-12-03T17:20:15.101Z,1.18
2023-12-03T17:22:43.015Z,1.19
2023-12-03T17:25:10.897Z,1.20
2023-12-03T17:27:38.843Z,1.19
2023-12-03T17:30:06.950Z,1.19
2023-12-03T17:32:34.967Z,1.18
2023-12-03T17:35:03.435Z,1.20
2023-12-03T17:37:31.592Z,1.19
2023-12-03T17:39:59.463Z,1.19
2023-12-03T17:42:27.947Z,1.21
2023-12-03T17:44:56.149Z,1.19
2023-12-03T17:47:24.099Z,1.20
2023-12-03T17:49:53.480Z,1.21
2023-12-03T17:52:21.593Z,1.21
2023-12-03T17:54:49.551Z,1.20
2023-12-03T17:57:17.577Z,1.19
2023-12-03T17:59:45.660Z,1.19
2023-12-03T18:02:13.694Z,1.18
2023-12-03T18:04:43.247Z,1.18
2023-12-03T18:07:11.226Z,1.20
2023-12-03T18:09:39.621Z,1.22
2023-12-03T18:12:07.874Z,1.22
2023-12-03T18:14:38.838Z,1.23
2023-12-03T18:17:07.988Z,1.24
2023-12-03T18:19:37.318Z,1.28
2023-12-03T18:22:05.314Z,1.30
2023-12-03T18:24:33.306Z,1.30
2023-12-03T18:27:01.513Z,1.32
2023-12-03T18:29:29.553Z,1.31
2023-12-03T18:31:57.384Z,1.32
2023-12-03T18:34:25.302Z,1.32
2023-12-03T18:36:53.795Z,1.32
2023-12-03T18:39:22.149Z,1.32
2023-12-03T18:41:50.210Z,1.35
2023-12-03T18:44:22.299Z,1.37
2023-12-03T18:46:50.254Z,1.36
2023-12-03T18:49:19.724Z,1.33
2023-12-03T18:51:47.813Z,1.33
2023-12-03T18:54:15.763Z,1.34
2023-12-03T18:56:43.779Z,1.35
2023-12-03T18:59:11.861Z,1.34
2023-12-03T19:01:39.830Z,1.34
2023-12-03T19:04:10.515Z,1.32
2023-12-03T19:06:39.751Z,1.32
2023-12-03T19:09:07.771Z,1.31
2023-12-03T19:11:35.568Z,1.29
2023-12-03T19:14:03.740Z,1.27
2023-12-03T19:16:31.638Z,1.25
2023-12-03T19:19:00.203Z,1.22
2023-12-03T19:21:28.353Z,1.21
2023-12-03T19:23:56.292Z,1.19
2023-12-03T19:26:24.197Z,1.17
2023-12-03T19:28:52.931Z,1.16
2023-12-03T19:31:21.106Z,1.16
2023-12-03T19:33:49.379Z,1.18
2023-12-03T19:36:17.415Z,1.18
2023-12-03T19:38:45.211Z,1.21
2023-12-03T19:41:13.077Z,1.23
2023-12-03T19:43:43.471Z,1.23
2023-12-03T19:46:11.266Z,1.22
2023-12-03T19:48:39.193Z,1.22
2023-12-03T19:51:07.308Z,1.20
2023-12-03T19:53:35.313Z,1.20
2023-12-03T19:56:04.790Z,1.20
2023-12-03T19:58:32.812Z,1.19
2023-12-03T20:01:00.770Z,1.18
2023-12-03T20:03:29.587Z,1.17
2023-12-03T20:05:59.099Z,1.14
2023-12-03T20:08:27.193Z,1.11
2023-12-03T20:10:55.177Z,1.10
2023-12-03T20:13:23.184Z,1.08
2023-12-03T20:15:51.050Z,1.06
2023-12-03T20:18:19.558Z,1.05
2023-12-03T20:20:47.586Z,1.05
2023-12-03T20:23:15.472Z,1.05
2023-12-03T20:25:44.198Z,1.04
2023-12-03T20:28:12.290Z,1.03
2023-12-03T20:30:40.158Z,1.03
2023-12-03T20:33:08.736Z,1.05
2023-12-03T20:35:36.650Z,1.05
2023-12-03T20:38:04.538Z,1.06
2023-12-03T20:40:32.458Z,1.07
2023-12-03T20:43:00.496Z,1.07
2023-12-03T20:45:28.872Z,1.09
2023-12-03T20:47:56.950Z,1.12
2023-12-03T20:50:27.021Z,1.13
2023-12-03T20:52:58.162Z,1.12
2023-12-03T20:55:26.080Z,1.14
2023-12-03T20:57:54.372Z,1.14
2023-12-03T21:00:22.474Z,1.14
2023-12-03T21:02:50.329Z,1.17
2023-12-03T21:05:20.829Z,1.17
2023-12-03T21:07:51.479Z,1.17
2023-12-03T21:10:20.227Z,1.17
2023-12-03T21:12:48.079Z,1.16
2023-12-03T21:15:16.453Z,1.15
2023-12-03T21:17:44.520Z,1.13
2023-12-03T21:20:12.413Z,1.13
2023-12-03T21:22:42.223Z,1.12
2023-12-03T21:25:10.173Z,1.12
2023-12-03T21:27:37.977Z,1.12
2023-12-03T21:30:05.814Z,1.12
2023-12-03T21:32:33.708Z,1.13
2023-12-03T21:35:02.102Z,1.09
2023-12-03T21:37:30.656Z,1.07
2023-12-03T21:39:58.514Z,1.03
2023-12-03T21:42:26.559Z,1.00
2023-12-03T21:44:55.443Z,0.98
2023-12-03T21:47:23.415Z,0.97
2023-12-03T21:49:52.648Z,0.98
2023-12-03T21:52:24.199Z,0.95
2023-12-03T21:54:53.249Z,0.94
2023-12-03T21:57:21.081Z,0.93
2023-12-03T21:59:49.838Z,0.91
2023-12-03T22:02:19.951Z,0.90
2023-12-03T22:04:48.585Z,0.92
2023-12-03T22:07:16.650Z,0.91
2023-12-03T22:09:44.677Z,0.89
2023-12-03T22:12:12.665Z,0.90
2023-12-03T22:14:40.564Z,0.89
2023-12-03T22:17:08.518Z,0.88
2023-12-03T22:19:36.353Z,0.89
2023-12-03T22:22:04.393Z,0.90
2023-12-03T22:24:33.090Z,0.90
2023-12-03T22:27:01.348Z,0.91
2023-12-03T22:29:35.654Z,0.93
2023-12-03T22:32:15.920Z,0.95
2023-12-03T22:34:47.261Z,0.96
2023-12-03T22:37:15.109Z,0.98
2023-12-03T22:39:43.188Z,0.97
2023-12-03T22:42:11.021Z,0.96
2023-12-03T22:44:41.713Z,0.95
2023-12-03T22:47:09.924Z,0.95
2023-12-03T22:49:37.699Z,0.94
2023-12-03T22:52:05.476Z,0.95
2023-12-03T22:54:33.291Z,0.95
2023-12-03T22:57:03.480Z,0.94
2023-12-03T22:59:31.323Z,0.93
2023-12-03T23:01:59.205Z,0.94
2023-12-03T23:04:26.997Z,0.95
2023-12-03T23:06:55.323Z,0.97
2023-12-03T23:09:23.047Z,0.98
2023-12-03T23:11:50.767Z,1.00
2023-12-03T23:14:18.457Z,1.02
2023-12-03T23:16:46.265Z,1.04
2023-12-03T23:19:14.236Z,1.06
2023-12-03T23:21:42.216Z,1.09
2023-12-03T23:24:10.817Z,1.10
2023-12-03T23:26:41.462Z,1.11
2023-12-03T23:29:09.656Z,1.14
2023-12-03T23:31:37.446Z,1.16
2023-12-03T23:34:05.384Z,1.17
2023-12-03T23:36:33.213Z,1.18
2023-12-03T23:39:01.839Z,1.19
2023-12-03T23:41:29.516Z,1.19
2023-12-03T23:43:57.797Z,1.18
2023-12-03T23:46:25.615Z,1.17
2023-12-03T23:48:53.478Z,1.17
2023-12-03T23:51:21.915Z,1.16
2023-12-03T23:53:49.687Z,1.17
2023-12-03T23:56:17.317Z,1.18
2023-12-03T23:58:45.005Z,1.19
